createdAt,value
2023-03-31T00:00:34.939Z,43.52
2023-03-31T00:03:02.912Z,42.91
2023-03-31T00:05:33.314Z,42.65
2023-03-31T00:08:01.978Z,42.63
2023-03-31T00:10:31.977Z,43.35
2023-03-31T00:13:02.103Z,43.06
2023-03-31T00:15:30.459Z,42.02
2023-03-31T00:18:00.590Z,43.35
2023-03-31T00:20:28.731Z,41.74
2023-03-31T00:22:57.632Z,41.62
2023-03-31T00:25:25.537Z,41.90
2023-03-31T00:27:53.448Z,41.97
2023-03-31T00:30:22.633Z,43.37
2023-03-31T00:32:50.662Z,43.41
2023-03-31T00:35:19.128Z,42.81
2023-03-31T00:37:47.215Z,43.29
2023-03-31T00:40:15.327Z,42.88
2023-03-31T00:42:44.384Z,43.64
2023-03-31T00:45:28.273Z,43.41
2023-03-31T00:48:04.306Z,43.43
2023-03-31T00:50:36.539Z,43.81
2023-03-31T00:53:09.253Z,43.31
2023-03-31T00:55:43.417Z,42.61
2023-03-31T00:58:14.554Z,42.84
2023-03-31T01:00:44.157Z,42.30
2023-03-31T01:03:12.296Z,42.32
2023-03-31T01:05:45.684Z,42.24
2023-03-31T01:08:15.519Z,43.07
2023-03-31T01:10:49.010Z,43.20
2023-03-31T01:13:19.914Z,42.94
2023-03-31T01:15:49.654Z,42.03
2023-03-31T01:18:21.202Z,41.29
2023-03-31T01:21:07.996Z,42.06
2023-03-31T01:23:51.690Z,41.68
2023-03-31T01:26:55.841Z,42.74
2023-03-31T01:29:45.649Z,43.21
2023-03-31T01:33:01.676Z,42.66
2023-03-31T01:35:53.861Z,43.26
2023-03-31T01:39:03.826Z,44.18
2023-03-31T01:41:47.414Z,43.59
2023-03-31T01:44:24.388Z,43.53
2023-03-31T01:46:56.960Z,42.81
2023-03-31T01:49:31.117Z,42.46
2023-03-31T01:52:05.721Z,42.79
2023-03-31T01:54:40.956Z,41.73
2023-03-31T01:57:16.140Z,40.88
2023-03-31T01:59:53.180Z,41.36
2023-03-31T02:02:29.270Z,41.77
2023-03-31T02:05:01.731Z,43.38
2023-03-31T02:07:35.578Z,42.07
2023-03-31T02:10:08.944Z,42.86
2023-03-31T02:12:40.934Z,43.04
2023-03-31T02:15:12.942Z,42.45
2023-03-31T02:17:45.777Z,43.02
2023-03-31T02:20:16.656Z,43.11
2023-03-31T02:22:48.085Z,43.14
2023-03-31T02:25:20.405Z,42.76
2023-03-31T02:27:54.428Z,42.67
2023-03-31T02:30:22.908Z,41.49
2023-03-31T02:32:51.060Z,42.15
2023-03-31T02:35:21.699Z,42.50
2023-03-31T02:37:50.627Z,42.64
2023-03-31T02:40:21.653Z,42.92
2023-03-31T02:42:51.322Z,42.78
2023-03-31T02:45:40.016Z,41.87
2023-03-31T02:48:12.390Z,40.53
2023-03-31T02:51:07.361Z,43.46
2023-03-31T02:53:46.002Z,42.89
2023-03-31T02:56:27.355Z,42.02
2023-03-31T02:59:30.827Z,42.98
2023-03-31T03:02:12.569Z,42.65
2023-03-31T03:05:20.146Z,42.60
2023-03-31T03:08:20.203Z,43.94
2023-03-31T03:11:02.431Z,43.02
2023-03-31T03:13:37.973Z,42.83
2023-03-31T03:16:10.869Z,44.08
2023-03-31T03:18:40.139Z,43.21
2023-03-31T03:21:08.015Z,43.64
2023-03-31T03:23:35.883Z,43.51
2023-03-31T03:26:03.874Z,42.27
2023-03-31T03:28:31.837Z,43.48
2023-03-31T03:30:59.745Z,43.41
2023-03-31T03:33:27.648Z,42.87
2023-03-31T03:35:56.856Z,43.38
2023-03-31T03:38:24.831Z,44.14
2023-03-31T03:40:54.437Z,42.58
2023-03-31T03:43:22.311Z,44.84
2023-03-31T03:45:50.302Z,42.63
2023-03-31T03:48:18.153Z,43.06
2023-03-31T03:50:47.332Z,41.15
2023-03-31T03:53:17.087Z,41.20
2023-03-31T03:55:45.861Z,40.85
2023-03-31T03:58:13.766Z,40.48
2023-03-31T04:00:41.681Z,41.05
2023-03-31T04:03:09.551Z,40.30
2023-03-31T04:05:37.578Z,41.41
2023-03-31T04:08:06.199Z,41.17
2023-03-31T04:10:35.620Z,42.10
2023-03-31T04:13:03.426Z,41.04
2023-03-31T04:15:31.433Z,40.90
2023-03-31T04:17:59.375Z,42.06
2023-03-31T04:20:31.568Z,40.48
2023-03-31T04:22:59.504Z,42.38
2023-03-31T04:25:30.776Z,40.47
2023-03-31T04:28:00.171Z,40.22
2023-03-31T04:30:31.635Z,40.66
2023-03-31T04:33:01.238Z,42.79
2023-03-31T04:35:48.401Z,42.37
2023-03-31T04:38:18.691Z,42.43
2023-03-31T04:40:47.872Z,41.64
2023-03-31T04:43:17.903Z,41.46
2023-03-31T04:45:46.405Z,41.88
2023-03-31T04:48:14.615Z,43.79
2023-03-31T04:50:42.656Z,42.95
2023-03-31T04:53:10.859Z,41.28
2023-03-31T04:55:38.918Z,43.62
2023-03-31T04:58:06.754Z,43.19
2023-03-31T05:00:36.148Z,42.89
2023-03-31T05:03:04.263Z,42.32
2023-03-31T05:05:32.312Z,41.69
2023-03-31T05:08:00.166Z,41.11
2023-03-31T05:10:28.333Z,41.09
2023-03-31T05:12:56.291Z,41.84
2023-03-31T05:15:24.593Z,42.72
2023-03-31T05:17:54.152Z,42.31
2023-03-31T05:20:22.701Z,40.94
2023-03-31T05:22:51.044Z,40.52
2023-03-31T05:25:19.555Z,39.51
2023-03-31T05:27:48.381Z,39.17
2023-03-31T05:30:18.952Z,39.68
2023-03-31T05:32:47.388Z,40.83
2023-03-31T05:35:17.499Z,40.14
2023-03-31T05:37:45.755Z,42.18
2023-03-31T05:40:14.237Z,43.20
2023-03-31T05:42:42.886Z,44.22
2023-03-31T05:45:12.407Z,42.79
2023-03-31T05:47:40.670Z,42.69
2023-03-31T05:50:09.729Z,41.89
2023-03-31T05:52:39.686Z,41.53
2023-03-31T05:55:08.782Z,43.73
2023-03-31T05:57:36.656Z,43.13
2023-03-31T06:00:08.822Z,41.31
2023-03-31T06:02:36.948Z,43.32
2023-03-31T06:05:05.585Z,44.61
2023-03-31T06:07:33.667Z,42.45
2023-03-31T06:10:03.368Z,43.98
2023-03-31T06:12:33.371Z,43.91
2023-03-31T06:15:01.567Z,41.88
2023-03-31T06:17:29.887Z,43.22
2023-03-31T06:19:58.224Z,42.21
2023-03-31T06:22:26.483Z,42.71
2023-03-31T06:24:54.759Z,41.04
2023-03-31T06:27:24.108Z,41.48
2023-03-31T06:29:57.458Z,43.24
2023-03-31T06:32:30.347Z,40.50
2023-03-31T06:34:59.968Z,40.82
2023-03-31T06:37:29.174Z,41.32
2023-03-31T06:39:57.377Z,40.64
2023-03-31T06:42:28.156Z,41.50
2023-03-31T06:45:00.250Z,41.57
2023-03-31T06:47:30.969Z,42.21
2023-03-31T06:49:59.117Z,41.26
2023-03-31T06:52:30.487Z,42.08
2023-03-31T06:54:58.567Z,43.90
2023-03-31T06:57:28.406Z,46.26
2023-03-31T06:59:56.948Z,44.93
2023-03-31T07:02:36.703Z,44.73
2023-03-31T07:05:08.152Z,45.12
2023-03-31T07:07:38.078Z,43.51
2023-03-31T07:10:09.111Z,42.86
2023-03-31T07:12:38.535Z,42.00
2023-03-31T07:15:16.891Z,44.04
2023-03-31T07:18:02.677Z,47.16
2023-03-31T07:20:32.780Z,46.71
2023-03-31T07:23:01.023Z,46.11
2023-03-31T07:25:29.214Z,45.74
2023-03-31T07:27:59.194Z,44.25
2023-03-31T07:30:27.384Z,45.66
2023-03-31T07:32:55.804Z,45.14
2023-03-31T07:35:24.221Z,45.43
2023-03-31T07:38:04.937Z,44.64
2023-03-31T07:40:33.461Z,44.54
2023-03-31T07:43:03.092Z,44.55
2023-03-31T07:45:31.319Z,42.23
2023-03-31T07:48:00.143Z,44.33
2023-03-31T07:50:29.054Z,44.75
2023-03-31T07:52:59.735Z,45.42
2023-03-31T07:55:27.839Z,46.82
2023-03-31T07:57:56.232Z,46.14
2023-03-31T08:00:26.159Z,47.06
2023-03-31T08:02:54.266Z,46.56
2023-03-31T08:05:22.413Z,45.94
2023-03-31T08:07:52.033Z,44.97
2023-03-31T08:10:22.862Z,46.87
2023-03-31T08:12:51.315Z,48.48
2023-03-31T08:15:19.617Z,49.18
2023-03-31T08:17:49.213Z,49.03
2023-03-31T08:20:17.396Z,48.15
2023-03-31T08:22:45.562Z,48.76
2023-03-31T08:25:13.428Z,49.45
2023-03-31T08:27:41.923Z,46.88
2023-03-31T08:30:12.265Z,45.84
2023-03-31T08:32:40.356Z,48.26
2023-03-31T08:35:10.611Z,47.73
2023-03-31T08:37:38.782Z,47.71
2023-03-31T08:40:09.773Z,47.02
2023-03-31T08:42:42.327Z,44.57
2023-03-31T08:45:18.703Z,44.81
2023-03-31T08:47:48.969Z,44.58
2023-03-31T08:50:25.961Z,42.91
2023-03-31T08:53:01.219Z,41.40
2023-03-31T08:55:32.836Z,41.45
2023-03-31T08:58:07.254Z,40.56
2023-03-31T09:00:45.063Z,41.85
2023-03-31T09:03:20.822Z,41.35
2023-03-31T09:06:13.009Z,44.43
2023-03-31T09:08:47.110Z,45.84
2023-03-31T09:11:27.695Z,47.16
2023-03-31T09:14:14.932Z,46.33
2023-03-31T09:16:49.752Z,44.84
2023-03-31T09:19:27.011Z,44.67
2023-03-31T09:21:57.600Z,44.90
2023-03-31T09:24:32.196Z,48.46
2023-03-31T09:27:03.816Z,47.93
2023-03-31T09:29:42.271Z,48.05
2023-03-31T09:32:16.264Z,48.51
2023-03-31T09:34:46.031Z,48.73
2023-03-31T09:37:15.467Z,48.05
2023-03-31T09:39:43.773Z,48.05
2023-03-31T09:42:14.241Z,45.86
2023-03-31T09:44:44.386Z,46.90
2023-03-31T09:47:17.754Z,47.67
2023-03-31T09:49:54.045Z,47.52
2023-03-31T09:52:30.578Z,49.02
2023-03-31T09:55:01.379Z,49.80
2023-03-31T09:57:33.516Z,49.49
2023-03-31T10:00:13.698Z,47.52
2023-03-31T10:02:45.859Z,46.80
2023-03-31T10:05:32.249Z,46.04
2023-03-31T10:08:28.168Z,48.80
2023-03-31T10:10:58.079Z,49.46
2023-03-31T10:13:29.332Z,47.96
2023-03-31T10:16:06.577Z,46.22
2023-03-31T10:18:36.830Z,45.68
2023-03-31T10:21:08.080Z,45.82
2023-03-31T10:23:39.280Z,45.97
2023-03-31T10:26:07.680Z,46.58
2023-03-31T10:28:37.230Z,45.97
2023-03-31T10:31:06.393Z,46.87
2023-03-31T10:33:39.177Z,46.90
2023-03-31T10:36:14.318Z,46.98
2023-03-31T10:38:47.149Z,45.08
2023-03-31T10:41:21.323Z,46.43
2023-03-31T10:43:52.595Z,42.99
2023-03-31T10:46:21.431Z,42.59
2023-03-31T10:48:49.675Z,45.14
2023-03-31T10:51:19.882Z,43.48
2023-03-31T10:53:51.139Z,45.53
2023-03-31T10:56:37.743Z,44.37
2023-03-31T10:59:32.610Z,44.25
2023-03-31T11:02:16.461Z,44.70
2023-03-31T11:04:51.898Z,43.14
2023-03-31T11:07:34.129Z,45.53
2023-03-31T11:10:30.575Z,43.74
2023-03-31T11:13:02.842Z,44.75
2023-03-31T11:15:38.092Z,44.86
2023-03-31T11:18:20.172Z,45.51
2023-03-31T11:20:59.522Z,46.82
2023-03-31T11:23:41.066Z,45.13
2023-03-31T11:26:14.688Z,46.78
2023-03-31T11:29:01.732Z,45.13
2023-03-31T11:31:41.422Z,47.28
2023-03-31T11:34:41.800Z,45.35
2023-03-31T11:37:32.421Z,43.91
2023-03-31T11:40:17.492Z,46.24
2023-03-31T11:42:51.801Z,46.71
2023-03-31T11:45:22.858Z,44.71
2023-03-31T11:47:56.191Z,45.10
2023-03-31T11:50:27.654Z,44.14
2023-03-31T11:53:02.230Z,41.63
2023-03-31T11:55:32.906Z,42.36
2023-03-31T11:58:07.546Z,42.60
2023-03-31T12:00:40.652Z,42.38
2023-03-31T12:03:14.563Z,43.11
2023-03-31T12:05:47.168Z,42.01
2023-03-31T12:08:21.343Z,41.07
2023-03-31T12:10:53.513Z,43.57
2023-03-31T12:13:43.076Z,41.19
2023-03-31T12:16:16.145Z,44.53
2023-03-31T12:18:54.516Z,43.08
2023-03-31T12:21:23.814Z,39.81
2023-03-31T12:23:52.218Z,38.74
2023-03-31T12:26:38.684Z,39.81
2023-03-31T12:29:20.591Z,39.96
2023-03-31T12:31:49.705Z,38.28
2023-03-31T12:34:21.634Z,36.77
2023-03-31T12:37:07.138Z,36.12
2023-03-31T12:39:46.174Z,35.19
2023-03-31T12:42:37.347Z,35.33
2023-03-31T12:45:18.580Z,38.14
2023-03-31T12:48:04.295Z,36.42
2023-03-31T12:50:46.625Z,35.89
2023-03-31T12:53:26.671Z,36.33
2023-03-31T12:55:57.983Z,36.24
2023-03-31T12:58:45.032Z,35.93
2023-03-31T13:01:19.868Z,33.94
2023-03-31T13:03:51.148Z,33.92
2023-03-31T13:06:54.926Z,34.96
2023-03-31T13:09:43.384Z,33.85
2023-03-31T13:12:17.196Z,34.37
2023-03-31T13:14:46.887Z,33.87
2023-03-31T13:17:24.932Z,35.64
2023-03-31T13:19:54.368Z,34.25
2023-03-31T13:22:38.043Z,33.24
2023-03-31T13:25:33.789Z,32.55
2023-03-31T13:28:13.911Z,32.06
2023-03-31T13:30:52.007Z,35.82
2023-03-31T13:33:32.059Z,37.15
2023-03-31T13:36:26.198Z,37.01
2023-03-31T13:39:09.919Z,37.62
2023-03-31T13:41:51.776Z,37.60
2023-03-31T13:44:52.615Z,35.39
2023-03-31T13:47:59.541Z,34.63
2023-03-31T13:50:52.706Z,35.61
2023-03-31T13:53:39.204Z,36.98
2023-03-31T13:56:24.971Z,38.46
2023-03-31T13:59:15.740Z,36.31
2023-03-31T14:02:27.852Z,37.25
2023-03-31T14:05:19.395Z,38.86
2023-03-31T14:07:54.949Z,40.16
2023-03-31T14:10:25.389Z,40.32
2023-03-31T14:12:53.762Z,39.72
2023-03-31T14:15:22.955Z,40.12
2023-03-31T14:17:51.060Z,40.85
2023-03-31T14:20:34.523Z,39.54
2023-03-31T14:23:25.771Z,41.04
2023-03-31T14:26:03.240Z,39.15
2023-03-31T14:28:46.769Z,39.71
2023-03-31T14:31:23.536Z,39.10
2023-03-31T14:34:09.965Z,39.49
2023-03-31T14:36:46.938Z,38.53
2023-03-31T14:39:22.413Z,37.36
2023-03-31T14:41:54.492Z,36.97
2023-03-31T14:44:22.934Z,36.20
2023-03-31T14:46:57.557Z,35.63
2023-03-31T14:49:28.553Z,37.73
2023-03-31T14:52:01.816Z,38.73
2023-03-31T14:54:37.911Z,38.26
2023-03-31T14:57:06.807Z,40.06
2023-03-31T14:59:42.517Z,39.90
2023-03-31T15:02:17.149Z,39.64
2023-03-31T15:04:48.263Z,41.78
2023-03-31T15:07:17.913Z,43.43
2023-03-31T15:09:51.312Z,41.66
2023-03-31T15:12:22.370Z,40.28
2023-03-31T15:14:53.086Z,38.45
2023-03-31T15:17:24.460Z,37.92
2023-03-31T15:20:00.581Z,40.30
2023-03-31T15:22:30.601Z,43.34
2023-03-31T15:25:00.810Z,46.08
2023-03-31T15:30:26.756Z,43.84
2023-03-31T15:33:01.419Z,42.83
2023-03-31T15:35:37.847Z,43.68
2023-03-31T15:38:07.659Z,44.57
2023-03-31T15:40:41.353Z,46.25
2023-03-31T15:43:25.747Z,46.16
2023-03-31T15:45:56.093Z,57.29
2023-03-31T15:48:33.916Z,66.33
2023-03-31T15:51:06.673Z,78.38
2023-03-31T15:53:38.796Z,77.68
2023-03-31T15:56:08.957Z,60.05
2023-03-31T15:58:56.871Z,54.46
2023-03-31T16:01:33.008Z,64.54
2023-03-31T16:04:02.640Z,71.62
2023-03-31T16:06:40.769Z,66.21
2023-03-31T16:09:11.177Z,70.00
2023-03-31T16:11:44.570Z,62.02
2023-03-31T16:14:20.715Z,62.69
2023-03-31T16:16:53.077Z,61.80
2023-03-31T16:19:24.745Z,64.45
2023-03-31T16:21:55.666Z,61.18
2023-03-31T16:24:31.294Z,59.31
2023-03-31T16:27:06.616Z,59.13
2023-03-31T16:29:37.058Z,59.39
2023-03-31T16:32:10.675Z,59.45
2023-03-31T16:34:54.122Z,59.65
2023-03-31T16:37:22.561Z,58.77
2023-03-31T16:39:51.231Z,57.77
2023-03-31T16:42:21.819Z,57.37
2023-03-31T16:45:04.426Z,60.25
2023-03-31T16:47:38.254Z,60.85
2023-03-31T16:50:09.281Z,59.93
2023-03-31T16:52:38.384Z,62.15
2023-03-31T16:55:06.986Z,57.95
2023-03-31T16:57:36.962Z,59.42
2023-03-31T17:00:05.865Z,56.47
2023-03-31T17:02:34.246Z,56.97
2023-03-31T17:05:12.529Z,55.72
2023-03-31T17:07:41.621Z,57.85
2023-03-31T17:10:10.678Z,55.27
2023-03-31T17:12:40.622Z,58.16
2023-03-31T17:15:10.384Z,54.83
2023-03-31T17:17:38.591Z,54.92
2023-03-31T17:20:09.140Z,54.21
2023-03-31T17:22:38.236Z,56.01
2023-03-31T17:25:08.039Z,54.93
2023-03-31T17:27:36.501Z,54.28
2023-03-31T17:30:08.079Z,54.17
2023-03-31T17:32:36.656Z,53.46
2023-03-31T17:35:05.558Z,53.96
2023-03-31T17:37:34.857Z,54.79
2023-03-31T17:40:03.376Z,53.33
2023-03-31T17:42:34.989Z,52.05
2023-03-31T17:45:03.085Z,52.35
2023-03-31T17:47:33.513Z,50.02
2023-03-31T17:50:01.587Z,51.78
2023-03-31T17:52:29.609Z,51.23
2023-03-31T17:54:58.391Z,51.78
2023-03-31T17:57:27.379Z,51.50
2023-03-31T17:59:55.728Z,49.75
2023-03-31T18:02:24.181Z,49.44
2023-03-31T18:04:53.574Z,50.57
2023-03-31T18:07:23.169Z,50.40
2023-03-31T18:09:51.216Z,49.91
2023-03-31T18:12:19.281Z,50.67
2023-03-31T18:14:47.364Z,51.52
2023-03-31T18:17:16.168Z,49.54
2023-03-31T18:19:44.473Z,50.76
2023-03-31T18:22:13.947Z,51.69
2023-03-31T18:24:41.996Z,50.51
2023-03-31T18:27:10.887Z,50.69
2023-03-31T18:29:39.859Z,49.90
2023-03-31T18:32:08.265Z,49.98
2023-03-31T18:34:38.258Z,51.24
2023-03-31T18:37:06.479Z,50.46
2023-03-31T18:39:35.791Z,51.80
2023-03-31T18:42:04.164Z,52.13
2023-03-31T18:44:32.721Z,50.98
2023-03-31T18:47:00.723Z,52.27
2023-03-31T18:49:28.866Z,53.31
2023-03-31T18:51:58.644Z,52.37
2023-03-31T18:54:26.497Z,53.03
2023-03-31T18:56:55.652Z,53.72
2023-03-31T18:59:24.243Z,52.76
2023-03-31T19:01:52.302Z,53.78
2023-03-31T19:04:20.096Z,53.63
2023-03-31T19:06:47.917Z,54.73
2023-03-31T19:09:15.979Z,52.56
2023-03-31T19:11:43.756Z,51.23
2023-03-31T19:14:13.685Z,50.65
2023-03-31T19:16:45.011Z,52.21
2023-03-31T19:19:13.325Z,53.76
2023-03-31T19:21:41.718Z,56.61
2023-03-31T19:24:10.396Z,55.77
2023-03-31T19:26:38.363Z,55.75
2023-03-31T19:29:06.920Z,54.74
2023-03-31T19:31:38.471Z,55.65
2023-03-31T19:34:06.960Z,55.24
2023-03-31T19:36:35.533Z,55.57
2023-03-31T19:39:04.575Z,57.29
2023-03-31T19:41:32.501Z,54.84
2023-03-31T19:44:00.360Z,53.66
2023-03-31T19:46:28.912Z,56.03
2023-03-31T19:48:58.233Z,54.65
2023-03-31T19:51:27.646Z,54.68
2023-03-31T19:53:55.649Z,55.89
2023-03-31T19:56:25.294Z,55.81
2023-03-31T19:58:53.584Z,56.18
2023-03-31T20:01:23.555Z,55.57
2023-03-31T20:03:53.537Z,57.83
2023-03-31T20:06:24.705Z,58.41
2023-03-31T20:08:57.304Z,58.89
2023-03-31T20:11:26.276Z,59.76
2023-03-31T20:13:55.005Z,57.67
2023-03-31T20:16:24.791Z,55.57
2023-03-31T20:18:54.882Z,55.08
2023-03-31T20:21:26.281Z,54.44
2023-03-31T20:23:55.306Z,52.52
2023-03-31T20:26:25.157Z,52.03
2023-03-31T20:28:55.919Z,52.35
2023-03-31T20:31:26.069Z,50.69
2023-03-31T20:33:56.098Z,51.18
2023-03-31T20:36:27.306Z,52.83
2023-03-31T20:38:55.310Z,51.78
2023-03-31T20:41:26.310Z,55.19
2023-03-31T20:43:55.045Z,53.51
2023-03-31T20:46:23.851Z,53.28
2023-03-31T20:48:53.346Z,53.18
2023-03-31T20:51:24.628Z,51.81
2023-03-31T20:53:55.141Z,53.17
2023-03-31T20:56:25.279Z,52.77
2023-03-31T20:58:55.033Z,52.17
2023-03-31T21:01:23.691Z,53.24
2023-03-31T21:03:51.738Z,53.12
2023-03-31T21:06:20.863Z,55.47
2023-03-31T21:08:54.334Z,55.65
2023-03-31T21:11:24.131Z,56.69
2023-03-31T21:13:53.250Z,55.71
2023-03-31T21:16:21.707Z,57.12
2023-03-31T21:18:51.427Z,55.04
2023-03-31T21:21:20.018Z,56.35
2023-03-31T21:23:49.783Z,56.10
2023-03-31T21:26:19.362Z,55.59
2023-03-31T21:28:48.323Z,54.32
2023-03-31T21:31:21.070Z,53.18
2023-03-31T21:33:49.418Z,53.66
2023-03-31T21:36:20.583Z,53.09
2023-03-31T21:38:49.722Z,56.70
2023-03-31T21:41:22.642Z,56.62
2023-03-31T21:43:51.279Z,55.38
2023-03-31T21:46:31.413Z,54.21
2023-03-31T21:49:02.872Z,52.94
2023-03-31T21:51:38.957Z,53.58
2023-03-31T21:54:07.590Z,53.37
2023-03-31T21:56:37.018Z,53.42
2023-03-31T21:59:06.676Z,54.72
2023-03-31T22:01:34.795Z,52.68
2023-03-31T22:04:03.222Z,52.86
2023-03-31T22:06:31.633Z,52.88
2023-03-31T22:08:59.496Z,54.49
2023-03-31T22:11:28.395Z,53.24
2023-03-31T22:13:58.117Z,51.39
2023-03-31T22:16:26.057Z,52.87
2023-03-31T22:18:55.780Z,53.19
2023-03-31T22:21:41.692Z,54.17
2023-03-31T22:24:13.120Z,53.12
2023-03-31T22:26:41.125Z,51.52
2023-03-31T22:29:15.715Z,52.35
2023-03-31T22:31:43.632Z,51.34
2023-03-31T22:34:12.546Z,52.09
2023-03-31T22:36:40.612Z,53.71
2023-03-31T22:39:08.635Z,53.75
2023-03-31T22:41:36.704Z,54.43
2023-03-31T22:44:04.875Z,55.01
2023-03-31T22:46:34.281Z,56.59
2023-03-31T22:49:02.304Z,56.63
2023-03-31T22:51:31.046Z,54.90
2023-03-31T22:54:02.122Z,56.53
2023-03-31T22:56:30.056Z,54.11
2023-03-31T22:58:58.685Z,53.09
2023-03-31T23:01:27.038Z,53.59
2023-03-31T23:03:56.730Z,51.94
2023-03-31T23:06:25.063Z,50.39
2023-03-31T23:08:53.028Z,51.98
2023-03-31T23:11:21.297Z,52.26
2023-03-31T23:13:49.262Z,52.07
2023-03-31T23:16:21.937Z,52.49
2023-03-31T23:18:51.775Z,52.40
2023-03-31T23:21:23.620Z,52.07
2023-03-31T23:23:53.702Z,50.88
2023-03-31T23:26:22.125Z,51.38
2023-03-31T23:28:50.593Z,49.94
2023-03-31T23:31:19.941Z,50.79
2023-03-31T23:33:48.751Z,51.71
2023-03-31T23:36:18.349Z,50.10
2023-03-31T23:38:48.482Z,49.95
2023-03-31T23:41:20.549Z,49.93
2023-03-31T23:43:48.407Z,50.67
2023-03-31T23:46:16.604Z,50.67
2023-03-31T23:48:44.781Z,49.60
2023-03-31T23:51:13.538Z,50.30
2023-03-31T23:53:41.641Z,49.27
2023-03-31T23:56:14.610Z,52.20
2023-03-31T23:58:43.093Z,51.54
